createdAt,value
2022-10-10T00:00:36.312Z,15.95
2022-10-10T00:01:40.483Z,15.70
2022-10-10T00:02:43.548Z,16.30
2022-10-10T00:03:47.603Z,19.48
2022-10-10T00:04:53.209Z,18.50
2022-10-10T00:05:58.730Z,17.13
2022-10-10T00:07:01.723Z,18.23
2022-10-10T00:08:08.535Z,17.63
2022-10-10T00:09:11.706Z,16.60
2022-10-10T00:10:15.777Z,16.45
2022-10-10T00:11:21.550Z,16.67
2022-10-10T00:12:25.816Z,17.08
2022-10-10T00:13:28.965Z,17.38
2022-10-10T00:14:33.236Z,16.17
2022-10-10T00:15:36.274Z,16.25
2022-10-10T00:16:40.427Z,17.23
2022-10-10T00:17:44.066Z,16.95
2022-10-10T00:18:48.197Z,16.75
2022-10-10T00:19:51.241Z,16.40
2022-10-10T00:20:55.408Z,16.83
2022-10-10T00:21:59.856Z,16.83
2022-10-10T00:23:04.017Z,16.20
2022-10-10T00:24:07.508Z,16.90
2022-10-10T00:25:12.345Z,17.25
2022-10-10T00:26:18.906Z,16.27
2022-10-10T00:27:23.653Z,15.52
2022-10-10T00:28:26.763Z,16.30
2022-10-10T00:29:30.886Z,16.95
2022-10-10T00:30:33.825Z,17.00
2022-10-10T00:31:37.986Z,16.67
2022-10-10T00:32:41.011Z,17.05
2022-10-10T00:33:45.217Z,16.92
2022-10-10T00:34:48.367Z,16.05
2022-10-10T00:35:52.504Z,15.75
2022-10-10T00:36:55.472Z,16.52
2022-10-10T00:38:01.084Z,17.40
2022-10-10T00:39:04.294Z,16.00
2022-10-10T00:40:09.596Z,16.85
2022-10-10T00:41:12.892Z,16.80
2022-10-10T00:42:18.566Z,16.73
2022-10-10T00:43:22.271Z,16.60
2022-10-10T00:44:28.058Z,16.38
2022-10-10T00:45:37.123Z,16.70
2022-10-10T00:46:42.077Z,17.38
2022-10-10T00:47:45.149Z,16.90
2022-10-10T00:48:49.326Z,17.25
2022-10-10T00:49:52.358Z,16.75
2022-10-10T00:50:58.977Z,16.75
2022-10-10T00:52:02.155Z,17.67
2022-10-10T00:53:08.995Z,16.35
2022-10-10T00:54:13.408Z,17.05
2022-10-10T00:55:18.544Z,16.20
2022-10-10T00:56:27.219Z,16.83
2022-10-10T00:57:30.209Z,16.35
2022-10-10T00:58:35.647Z,16.08
2022-10-10T00:59:40.537Z,16.52
2022-10-10T01:00:44.937Z,14.77
2022-10-10T01:01:48.415Z,16.30
2022-10-10T01:02:53.059Z,17.60
2022-10-10T01:03:58.373Z,17.77
2022-10-10T01:05:02.385Z,16.73
2022-10-10T01:06:06.265Z,16.88
2022-10-10T01:07:13.163Z,17.83
2022-10-10T01:08:18.364Z,18.98
2022-10-10T01:09:22.593Z,17.17
2022-10-10T01:10:26.029Z,15.77
2022-10-10T01:11:52.478Z,16.15
2022-10-10T01:13:04.563Z,14.75
2022-10-10T01:14:18.125Z,15.20
2022-10-10T01:15:26.804Z,13.70
2022-10-10T01:16:37.357Z,14.35
2022-10-10T01:17:45.493Z,13.75
2022-10-10T01:18:56.607Z,15.05
2022-10-10T01:20:33.275Z,13.68
2022-10-10T01:21:40.413Z,11.73
2022-10-10T01:22:53.473Z,12.32
2022-10-10T01:24:42.436Z,12.10
2022-10-10T01:25:58.354Z,13.07
2022-10-10T01:27:37.436Z,12.13
2022-10-10T01:28:45.974Z,12.30
2022-10-10T01:29:53.474Z,11.65
2022-10-10T01:30:57.132Z,12.05
2022-10-10T01:32:06.326Z,13.55
2022-10-10T01:33:27.345Z,12.75
2022-10-10T01:34:35.975Z,11.40
2022-10-10T01:35:49.082Z,11.10
2022-10-10T01:36:58.200Z,11.82
2022-10-10T01:38:08.800Z,11.10
2022-10-10T01:39:21.080Z,11.85
2022-10-10T01:40:31.247Z,10.65
2022-10-10T01:41:39.306Z,11.90
2022-10-10T01:42:48.399Z,11.05
2022-10-10T01:43:55.233Z,12.00
2022-10-10T01:44:59.340Z,11.18
2022-10-10T01:46:10.261Z,10.75
2022-10-10T01:47:15.042Z,10.50
2022-10-10T01:48:22.372Z,11.30
2022-10-10T01:49:30.470Z,11.35
2022-10-10T01:50:37.788Z,11.10
2022-10-10T01:51:50.787Z,11.55
2022-10-10T01:53:04.152Z,11.00
2022-10-10T01:54:18.487Z,11.15
2022-10-10T01:55:32.840Z,11.43
2022-10-10T01:56:40.916Z,11.30
2022-10-10T01:57:51.823Z,11.60
2022-10-10T01:59:14.653Z,12.40
2022-10-10T02:00:18.812Z,11.35
2022-10-10T02:01:27.770Z,11.55
2022-10-10T02:02:40.809Z,11.35
2022-10-10T02:03:47.416Z,11.10
2022-10-10T02:04:54.185Z,10.52
2022-10-10T02:06:02.190Z,11.18
2022-10-10T02:07:08.852Z,11.50
2022-10-10T02:08:16.956Z,10.85
2022-10-10T02:09:23.772Z,10.10
2022-10-10T02:10:29.955Z,10.57
2022-10-10T02:11:34.802Z,10.35
2022-10-10T02:12:40.026Z,10.65
2022-10-10T02:13:45.804Z,11.90
2022-10-10T02:14:53.225Z,10.80
2022-10-10T02:15:58.320Z,10.35
2022-10-10T02:17:02.816Z,10.02
2022-10-10T02:18:07.044Z,10.52
2022-10-10T02:19:13.632Z,9.80
2022-10-10T02:20:20.511Z,11.43
2022-10-10T02:21:26.250Z,10.85
2022-10-10T02:22:30.470Z,10.13
2022-10-10T02:23:35.763Z,10.05
2022-10-10T02:24:38.914Z,10.48
2022-10-10T02:25:43.463Z,9.68
2022-10-10T02:26:50.195Z,10.30
2022-10-10T02:28:01.316Z,9.68
2022-10-10T02:29:06.831Z,9.48
2022-10-10T02:30:14.293Z,9.75
2022-10-10T02:31:21.512Z,9.57
2022-10-10T02:32:33.749Z,10.35
2022-10-10T02:33:44.915Z,9.52
2022-10-10T02:34:51.038Z,9.57
2022-10-10T02:35:55.224Z,9.23
2022-10-10T02:37:00.930Z,9.50
2022-10-10T02:38:06.275Z,11.65
2022-10-10T02:39:10.575Z,9.77
2022-10-10T02:40:17.942Z,10.30
2022-10-10T02:41:22.830Z,9.95
2022-10-10T02:42:27.246Z,10.10
2022-10-10T02:43:32.619Z,10.18
2022-10-10T02:44:35.985Z,10.25
2022-10-10T02:45:42.103Z,11.27
2022-10-10T02:46:45.792Z,9.40
2022-10-10T02:47:49.782Z,10.10
2022-10-10T02:48:53.339Z,10.75
2022-10-10T02:49:57.609Z,11.75
2022-10-10T02:51:00.801Z,13.23
2022-10-10T02:52:05.668Z,12.35
2022-10-10T02:53:09.461Z,18.02
2022-10-10T02:54:13.488Z,11.52
2022-10-10T02:55:17.517Z,16.65
2022-10-10T02:56:22.281Z,11.23
2022-10-10T02:57:25.274Z,11.40
2022-10-10T02:58:29.345Z,11.27
2022-10-10T02:59:32.511Z,18.77
2022-10-10T03:00:36.652Z,14.30
2022-10-10T03:01:41.325Z,15.48
2022-10-10T03:02:46.401Z,12.25
2022-10-10T03:03:49.529Z,13.35
2022-10-10T03:04:53.589Z,16.27
2022-10-10T03:05:56.551Z,16.58
2022-10-10T03:07:00.592Z,12.63
2022-10-10T03:08:05.891Z,13.07
2022-10-10T03:09:13.322Z,13.45
2022-10-10T03:10:16.411Z,12.00
2022-10-10T03:11:20.445Z,12.05
2022-10-10T03:12:23.441Z,12.60
2022-10-10T03:13:27.613Z,12.23
2022-10-10T03:14:31.029Z,13.38
2022-10-10T03:15:34.958Z,17.55
2022-10-10T03:16:37.953Z,15.20
2022-10-10T03:17:43.424Z,12.93
2022-10-10T03:18:46.950Z,20.58
2022-10-10T03:19:51.212Z,14.27
2022-10-10T03:20:56.257Z,10.30
2022-10-10T03:22:00.371Z,12.40
2022-10-10T03:23:03.625Z,16.17
2022-10-10T03:24:08.173Z,12.43
2022-10-10T03:25:11.140Z,15.65
2022-10-10T03:26:15.261Z,15.55
2022-10-10T03:27:18.311Z,12.80
2022-10-10T03:28:22.815Z,12.90
2022-10-10T03:29:25.881Z,16.15
2022-10-10T03:30:30.056Z,16.48
2022-10-10T03:31:33.379Z,15.02
2022-10-10T03:32:37.543Z,12.60
2022-10-10T03:33:41.932Z,12.02
2022-10-10T03:34:46.349Z,10.27
2022-10-10T03:35:49.829Z,10.07
2022-10-10T03:36:53.981Z,10.30
2022-10-10T03:37:57.091Z,10.25
2022-10-10T03:39:01.142Z,10.75
2022-10-10T03:40:04.569Z,11.60
2022-10-10T03:41:08.699Z,11.10
2022-10-10T03:42:11.660Z,10.93
2022-10-10T03:43:16.944Z,10.65
2022-10-10T03:44:19.884Z,11.60
2022-10-10T03:45:24.092Z,12.88
2022-10-10T03:46:27.038Z,12.18
2022-10-10T03:47:31.129Z,11.10
2022-10-10T03:48:34.330Z,11.00
2022-10-10T03:49:39.867Z,10.60
2022-10-10T03:50:43.175Z,10.82
2022-10-10T03:51:47.203Z,11.48
2022-10-10T03:52:50.397Z,12.52
2022-10-10T03:53:56.051Z,10.93
2022-10-10T03:54:59.052Z,10.00
2022-10-10T03:56:03.071Z,10.13
2022-10-10T03:57:06.089Z,9.20
2022-10-10T03:58:10.254Z,10.02
2022-10-10T03:59:13.392Z,9.50
2022-10-10T04:00:17.441Z,10.60
2022-10-10T04:01:20.416Z,9.88
2022-10-10T04:02:24.539Z,10.93
2022-10-10T04:03:27.772Z,10.73
2022-10-10T04:04:32.226Z,9.65
2022-10-10T04:05:37.860Z,9.00
2022-10-10T04:06:41.868Z,9.77
2022-10-10T04:07:44.781Z,14.75
2022-10-10T04:08:48.879Z,17.45
2022-10-10T04:09:51.997Z,13.93
2022-10-10T04:10:57.137Z,11.23
2022-10-10T04:12:00.172Z,14.68
2022-10-10T04:13:04.371Z,10.75
2022-10-10T04:14:07.410Z,11.35
2022-10-10T04:15:12.414Z,11.82
2022-10-10T04:16:15.822Z,13.50
2022-10-10T04:17:19.832Z,12.15
2022-10-10T04:18:23.723Z,10.52
2022-10-10T04:19:27.923Z,9.45
2022-10-10T04:20:30.921Z,10.88
2022-10-10T04:21:37.052Z,10.02
2022-10-10T04:22:40.052Z,11.00
2022-10-10T04:23:44.724Z,9.55
2022-10-10T04:24:48.538Z,10.05
2022-10-10T04:25:54.180Z,10.07
2022-10-10T04:26:57.761Z,8.95
2022-10-10T04:28:02.186Z,9.55
2022-10-10T04:29:05.870Z,9.20
2022-10-10T04:30:10.810Z,9.23
2022-10-10T04:31:14.008Z,10.55
2022-10-10T04:32:17.990Z,10.35
2022-10-10T04:33:21.276Z,12.75
2022-10-10T04:34:25.304Z,10.90
2022-10-10T04:35:28.462Z,10.23
2022-10-10T04:36:32.703Z,10.60
2022-10-10T04:37:37.678Z,10.38
2022-10-10T04:38:42.026Z,11.88
2022-10-10T04:39:45.066Z,9.32
2022-10-10T04:40:50.131Z,11.57
2022-10-10T04:41:53.167Z,12.40
2022-10-10T04:42:57.368Z,11.45
2022-10-10T04:44:00.677Z,11.02
2022-10-10T04:45:05.125Z,12.43
2022-10-10T04:46:08.231Z,12.43
2022-10-10T04:47:13.222Z,12.43
2022-10-10T04:48:16.348Z,10.43
2022-10-10T04:49:20.315Z,10.68
2022-10-10T04:50:23.932Z,10.25
2022-10-10T04:51:28.656Z,9.70
2022-10-10T04:52:31.690Z,9.50
2022-10-10T04:53:37.595Z,7.93
2022-10-10T04:54:40.945Z,7.72
2022-10-10T04:55:45.713Z,7.72
2022-10-10T04:56:48.863Z,8.10
2022-10-10T04:57:52.918Z,9.63
2022-10-10T04:58:55.910Z,8.63
2022-10-10T04:59:59.941Z,8.88
2022-10-10T05:01:04.478Z,8.02
2022-10-10T05:02:08.578Z,7.65
2022-10-10T05:03:12.845Z,7.93
2022-10-10T05:04:17.052Z,7.70
2022-10-10T05:05:20.031Z,8.40
2022-10-10T05:06:24.070Z,8.40
2022-10-10T05:07:27.040Z,8.65
2022-10-10T05:08:31.034Z,7.63
2022-10-10T05:09:36.029Z,8.27
2022-10-10T05:10:40.731Z,8.40
2022-10-10T05:11:43.721Z,8.18
2022-10-10T05:12:47.886Z,7.82
2022-10-10T05:13:51.201Z,7.20
2022-10-10T05:14:55.321Z,7.63
2022-10-10T05:15:58.292Z,6.82
2022-10-10T05:17:02.599Z,7.65
2022-10-10T05:18:05.913Z,7.43
2022-10-10T05:19:09.921Z,8.95
2022-10-10T05:20:12.933Z,11.73
2022-10-10T05:21:16.971Z,16.65
2022-10-10T05:22:19.910Z,10.85
2022-10-10T05:23:24.283Z,10.35
2022-10-10T05:24:27.330Z,10.10
2022-10-10T05:25:32.863Z,9.07
2022-10-10T05:26:38.655Z,10.77
2022-10-10T05:27:46.408Z,10.02
2022-10-10T05:28:49.374Z,12.55
2022-10-10T05:29:53.643Z,12.70
2022-10-10T05:30:56.591Z,13.43
2022-10-10T05:32:00.613Z,11.20
2022-10-10T05:33:03.534Z,13.02
2022-10-10T05:34:07.558Z,13.52
2022-10-10T05:35:10.554Z,14.45
2022-10-10T05:36:15.114Z,11.07
2022-10-10T05:37:18.354Z,12.00
2022-10-10T05:38:22.354Z,13.63
2022-10-10T05:39:25.539Z,13.00
2022-10-10T05:40:29.634Z,11.95
2022-10-10T05:41:34.376Z,13.48
2022-10-10T05:42:38.425Z,15.80
2022-10-10T05:43:41.568Z,16.63
2022-10-10T05:44:45.571Z,16.48
2022-10-10T05:45:48.573Z,17.42
2022-10-10T05:46:52.725Z,16.48
2022-10-10T05:47:55.854Z,16.65
2022-10-10T05:48:59.881Z,16.73
2022-10-10T05:50:02.760Z,20.83
2022-10-10T05:51:08.779Z,17.17
2022-10-10T05:52:11.740Z,19.35
2022-10-10T05:53:15.862Z,20.08
2022-10-10T05:54:19.962Z,19.73
2022-10-10T05:55:23.158Z,20.17
2022-10-10T05:56:27.252Z,17.02
2022-10-10T05:57:31.761Z,17.67
2022-10-10T05:58:35.884Z,16.95
2022-10-10T05:59:38.804Z,15.40
2022-10-10T06:00:42.879Z,15.70
2022-10-10T06:01:45.949Z,14.68
2022-10-10T06:02:50.423Z,13.43
2022-10-10T06:03:56.235Z,12.07
2022-10-10T06:05:00.300Z,11.63
2022-10-10T06:06:03.751Z,11.93
2022-10-10T06:07:07.744Z,12.07
2022-10-10T06:08:12.322Z,10.82
2022-10-10T06:09:16.730Z,9.68
2022-10-10T06:10:19.922Z,9.00
2022-10-10T06:11:26.190Z,7.97
2022-10-10T06:12:29.217Z,8.48
2022-10-10T06:13:35.108Z,7.65
2022-10-10T06:14:38.162Z,6.35
2022-10-10T06:15:43.060Z,6.35
2022-10-10T06:16:46.353Z,5.90
2022-10-10T06:17:50.364Z,6.10
2022-10-10T06:18:53.975Z,5.50
2022-10-10T06:19:58.105Z,4.75
2022-10-10T06:21:02.564Z,4.97
2022-10-10T06:22:06.770Z,4.70
2022-10-10T06:23:10.012Z,4.22
2022-10-10T06:24:14.012Z,4.82
2022-10-10T06:25:38.420Z,4.00
2022-10-10T06:26:41.219Z,3.67
2022-10-10T06:27:44.292Z,4.00
2022-10-10T06:28:51.088Z,3.85
2022-10-10T06:29:54.202Z,3.25
2022-10-10T06:31:02.020Z,3.30
2022-10-10T06:32:05.031Z,3.30
2022-10-10T06:33:09.157Z,3.17
2022-10-10T06:34:13.188Z,3.38
2022-10-10T06:35:16.331Z,3.90
2022-10-10T06:36:21.238Z,3.38
2022-10-10T06:37:24.472Z,3.05
2022-10-10T06:38:28.994Z,3.22
2022-10-10T06:39:32.172Z,3.05
2022-10-10T06:40:36.279Z,3.25
2022-10-10T06:41:39.394Z,2.80
2022-10-10T06:42:47.472Z,3.85
2022-10-10T06:43:56.100Z,3.25
2022-10-10T06:44:59.276Z,3.15
2022-10-10T06:46:03.469Z,2.70
2022-10-10T06:47:06.522Z,3.17
2022-10-10T06:48:11.213Z,3.00
2022-10-10T06:49:14.275Z,2.65
2022-10-10T06:50:18.471Z,3.03
2022-10-10T06:51:21.488Z,2.40
2022-10-10T06:52:25.913Z,2.70
2022-10-10T06:53:28.912Z,2.30
2022-10-10T06:54:33.297Z,2.50
2022-10-10T06:55:36.292Z,2.30
2022-10-10T06:56:40.262Z,2.67
2022-10-10T06:57:43.197Z,1.92
2022-10-10T06:58:47.893Z,2.33
2022-10-10T06:59:52.499Z,2.58
2022-10-10T07:00:58.341Z,2.38
2022-10-10T07:02:01.316Z,2.20
2022-10-10T07:03:05.511Z,2.60
2022-10-10T07:04:11.040Z,2.20
2022-10-10T07:05:16.602Z,2.08
2022-10-10T07:06:20.873Z,2.08
2022-10-10T07:07:24.173Z,2.33
2022-10-10T07:08:28.703Z,2.72
2022-10-10T07:09:31.841Z,2.20
2022-10-10T07:10:36.047Z,2.20
2022-10-10T07:11:45.434Z,2.40
2022-10-10T07:12:49.766Z,2.28
2022-10-10T07:13:54.410Z,2.35
2022-10-10T07:14:58.826Z,2.75
2022-10-10T07:16:03.095Z,3.13
2022-10-10T07:17:06.061Z,2.15
2022-10-10T07:18:10.182Z,2.30
2022-10-10T07:19:13.593Z,2.50
2022-10-10T07:20:17.649Z,2.67
2022-10-10T07:21:21.950Z,2.97
2022-10-10T07:22:25.445Z,2.60
2022-10-10T07:23:29.872Z,2.58
2022-10-10T07:24:33.001Z,2.92
2022-10-10T07:25:39.375Z,2.28
2022-10-10T07:26:43.432Z,2.30
2022-10-10T07:27:46.413Z,2.60
2022-10-10T07:28:50.510Z,2.38
2022-10-10T07:29:53.596Z,2.40
2022-10-10T07:31:02.776Z,2.30
2022-10-10T07:32:05.781Z,2.40
2022-10-10T07:33:09.840Z,4.43
2022-10-10T07:34:12.814Z,2.67
2022-10-10T07:35:16.961Z,2.20
2022-10-10T07:36:19.944Z,2.55
2022-10-10T07:37:24.053Z,2.97
2022-10-10T07:38:28.292Z,2.35
2022-10-10T07:39:31.211Z,3.03
2022-10-10T07:40:35.218Z,2.90
2022-10-10T07:41:39.161Z,2.63
2022-10-10T07:42:42.065Z,2.53
2022-10-10T07:43:46.153Z,2.88
2022-10-10T07:44:49.135Z,2.42
2022-10-10T07:45:53.292Z,2.47
2022-10-10T07:46:57.679Z,3.00
2022-10-10T07:48:01.677Z,2.15
2022-10-10T07:49:04.722Z,2.38
2022-10-10T07:50:09.864Z,2.65
2022-10-10T07:51:12.949Z,2.35
2022-10-10T07:52:17.930Z,2.30
2022-10-10T07:53:22.238Z,2.30
2022-10-10T07:54:25.452Z,2.88
2022-10-10T07:55:29.911Z,2.28
2022-10-10T07:56:34.144Z,2.33
2022-10-10T07:57:37.742Z,2.17
2022-10-10T07:58:41.934Z,2.67
2022-10-10T07:59:45.962Z,2.13
2022-10-10T08:00:50.126Z,3.38
2022-10-10T08:01:53.644Z,1.77
2022-10-10T08:02:59.192Z,2.08
2022-10-10T08:04:02.253Z,2.10
2022-10-10T08:05:06.963Z,1.92
2022-10-10T08:06:14.019Z,1.95
2022-10-10T08:07:17.206Z,2.70
2022-10-10T08:08:21.352Z,2.33
2022-10-10T08:09:25.756Z,2.05
2022-10-10T08:10:29.029Z,2.75
2022-10-10T08:11:33.158Z,2.45
2022-10-10T08:12:36.544Z,2.28
2022-10-10T08:13:42.597Z,2.80
2022-10-10T08:14:46.718Z,2.40
2022-10-10T08:15:51.397Z,1.90
2022-10-10T08:16:55.561Z,2.30
2022-10-10T08:18:01.201Z,1.90
2022-10-10T08:19:05.536Z,2.10
2022-10-10T08:20:09.317Z,1.95
2022-10-10T08:21:14.878Z,2.38
2022-10-10T08:22:17.881Z,2.33
2022-10-10T08:23:23.794Z,2.00
2022-10-10T08:24:27.146Z,1.95
2022-10-10T08:25:31.278Z,2.35
2022-10-10T08:26:34.292Z,2.70
2022-10-10T08:27:38.480Z,2.42
2022-10-10T08:28:41.757Z,1.80
2022-10-10T08:29:45.884Z,2.20
2022-10-10T08:30:49.972Z,2.00
2022-10-10T08:31:53.119Z,2.08
2022-10-10T08:32:57.203Z,2.33
2022-10-10T08:34:02.141Z,2.05
2022-10-10T08:35:08.131Z,2.00
2022-10-10T08:36:13.307Z,2.05
2022-10-10T08:37:17.994Z,1.90
2022-10-10T08:38:21.288Z,1.92
2022-10-10T08:39:25.452Z,2.10
2022-10-10T08:40:30.206Z,2.40
2022-10-10T08:41:40.864Z,1.90
2022-10-10T08:42:52.521Z,2.20
2022-10-10T08:44:01.194Z,2.63
2022-10-10T08:45:10.624Z,2.10
2022-10-10T08:46:18.912Z,2.55
2022-10-10T08:47:25.372Z,2.60
2022-10-10T08:48:30.677Z,3.33
2022-10-10T08:49:39.001Z,2.10
2022-10-10T08:50:44.231Z,2.15
2022-10-10T08:51:53.884Z,2.80
2022-10-10T08:52:59.938Z,2.30
2022-10-10T08:54:05.012Z,2.83
2022-10-10T08:55:15.278Z,2.17
2022-10-10T08:56:21.834Z,2.15
2022-10-10T08:57:29.437Z,2.28
2022-10-10T08:58:35.289Z,2.10
2022-10-10T08:59:41.758Z,2.00
2022-10-10T09:00:48.295Z,3.50
2022-10-10T09:02:18.278Z,2.53
2022-10-10T09:03:26.013Z,2.03
2022-10-10T09:04:32.662Z,2.30
2022-10-10T09:05:49.858Z,2.10
2022-10-10T09:07:02.302Z,1.90
2022-10-10T09:08:17.616Z,2.30
2022-10-10T09:09:29.476Z,2.10
2022-10-10T09:10:36.541Z,2.53
2022-10-10T09:11:50.670Z,2.08
2022-10-10T09:12:59.706Z,2.58
2022-10-10T09:14:16.202Z,2.05
2022-10-10T09:15:22.036Z,2.38
2022-10-10T09:16:33.823Z,2.10
2022-10-10T09:17:41.037Z,1.90
2022-10-10T09:18:55.957Z,1.90
2022-10-10T09:20:07.939Z,2.38
2022-10-10T09:21:16.546Z,2.17
2022-10-10T09:22:25.384Z,2.15
2022-10-10T09:23:32.835Z,1.95
2022-10-10T09:24:42.610Z,2.20
2022-10-10T09:25:52.760Z,1.90
2022-10-10T09:27:00.831Z,2.30
2022-10-10T09:28:09.268Z,2.20
2022-10-10T09:29:28.801Z,2.67
2022-10-10T09:30:32.891Z,2.30
2022-10-10T09:31:39.580Z,2.20
2022-10-10T09:32:43.983Z,2.80
2022-10-10T09:33:53.678Z,2.10
2022-10-10T09:35:01.950Z,2.10
2022-10-10T09:36:08.710Z,1.85
2022-10-10T09:37:35.284Z,2.10
2022-10-10T09:38:45.361Z,1.85
2022-10-10T09:39:53.445Z,1.85
2022-10-10T09:40:59.411Z,2.50
2022-10-10T09:42:06.207Z,1.80
2022-10-10T09:43:12.923Z,1.77
2022-10-10T09:44:17.036Z,1.95
2022-10-10T09:45:22.013Z,2.17
2022-10-10T09:46:26.644Z,1.90
2022-10-10T09:47:30.774Z,2.13
2022-10-10T09:48:36.172Z,2.35
2022-10-10T09:49:39.082Z,2.50
2022-10-10T09:50:43.944Z,2.33
2022-10-10T09:51:49.676Z,2.55
2022-10-10T09:52:54.260Z,2.10
2022-10-10T09:53:58.262Z,1.90
2022-10-10T09:55:03.292Z,2.15
2022-10-10T09:56:08.093Z,1.95
2022-10-10T09:57:13.489Z,2.00
2022-10-10T09:58:25.440Z,2.35
2022-10-10T09:59:40.096Z,2.20
2022-10-10T10:00:44.344Z,2.13
2022-10-10T10:02:03.617Z,2.00
2022-10-10T10:03:15.641Z,2.13
2022-10-10T10:04:28.647Z,2.60
2022-10-10T10:05:33.361Z,2.30
2022-10-10T10:06:37.839Z,2.58
2022-10-10T10:07:48.929Z,2.40
2022-10-10T10:08:54.936Z,2.10
2022-10-10T10:09:59.958Z,2.05
2022-10-10T10:11:05.178Z,1.98
2022-10-10T10:12:08.291Z,2.75
2022-10-10T10:13:15.171Z,2.28
2022-10-10T10:14:27.087Z,1.88
2022-10-10T10:15:33.331Z,2.00
2022-10-10T10:16:40.412Z,2.30
2022-10-10T10:17:43.478Z,3.63
2022-10-10T10:18:48.417Z,2.28
2022-10-10T10:19:52.200Z,2.30
2022-10-10T10:21:12.062Z,2.70
2022-10-10T10:22:34.529Z,2.47
2022-10-10T10:23:42.776Z,1.98
2022-10-10T10:24:48.241Z,2.42
2022-10-10T10:25:58.431Z,2.35
2022-10-10T10:27:11.118Z,2.78
2022-10-10T10:28:21.358Z,2.53
2022-10-10T10:29:30.327Z,1.98
2022-10-10T10:30:34.401Z,2.45
2022-10-10T10:31:58.112Z,2.40
2022-10-10T10:33:06.051Z,2.55
2022-10-10T10:34:24.508Z,3.25
2022-10-10T10:35:30.603Z,2.10
2022-10-10T10:36:40.781Z,2.65
2022-10-10T10:37:53.830Z,2.05
2022-10-10T10:39:05.181Z,2.30
2022-10-10T10:40:23.034Z,2.22
2022-10-10T10:41:31.800Z,2.33
2022-10-10T10:42:44.001Z,3.08
2022-10-10T10:44:10.601Z,2.42
2022-10-10T10:45:16.910Z,2.78
2022-10-10T10:46:29.191Z,2.60
2022-10-10T10:47:41.073Z,1.88
2022-10-10T10:48:47.142Z,2.08
2022-10-10T10:49:59.240Z,2.10
2022-10-10T10:51:08.519Z,2.20
2022-10-10T10:52:21.954Z,2.67
2022-10-10T10:53:30.829Z,1.95
2022-10-10T10:54:59.500Z,2.20
2022-10-10T10:56:13.412Z,2.38
2022-10-10T10:57:32.951Z,2.65
2022-10-10T10:59:23.536Z,4.15
2022-10-10T11:01:19.890Z,2.20
2022-10-10T11:01:57.010Z,2.53
2022-10-10T11:03:35.056Z,1.92
2022-10-10T11:05:19.330Z,2.35
2022-10-10T11:06:34.041Z,3.08
2022-10-10T11:07:45.474Z,1.90
2022-10-10T11:08:56.102Z,2.25
2022-10-10T11:10:03.306Z,2.58
2022-10-10T11:11:24.634Z,2.80
2022-10-10T11:12:46.231Z,2.40
2022-10-10T11:13:55.503Z,2.50
2022-10-10T11:15:02.849Z,2.35
2022-10-10T11:16:20.335Z,2.13
2022-10-10T11:17:38.974Z,2.50
2022-10-10T11:18:46.092Z,2.35
2022-10-10T11:19:57.074Z,2.72
2022-10-10T11:21:05.650Z,3.10
2022-10-10T11:22:11.938Z,2.90
2022-10-10T11:23:20.036Z,2.42
2022-10-10T11:24:33.822Z,2.88
2022-10-10T11:25:43.172Z,2.30
2022-10-10T11:26:51.356Z,2.65
2022-10-10T11:27:57.858Z,2.30
2022-10-10T11:29:03.884Z,2.83
2022-10-10T11:30:14.501Z,2.40
2022-10-10T11:31:20.909Z,2.58
2022-10-10T11:32:29.789Z,3.08
2022-10-10T11:33:37.013Z,2.15
2022-10-10T11:34:43.819Z,3.00
2022-10-10T11:35:51.761Z,2.70
2022-10-10T11:36:56.469Z,3.42
2022-10-10T11:38:03.739Z,2.40
2022-10-10T11:39:16.049Z,2.42
2022-10-10T11:40:34.872Z,2.30
2022-10-10T11:41:41.427Z,3.13
2022-10-10T11:42:50.252Z,2.45
2022-10-10T11:43:57.476Z,4.32
2022-10-10T11:45:03.868Z,3.22
2022-10-10T11:46:15.630Z,3.80
2022-10-10T11:47:24.892Z,2.38
2022-10-10T11:48:36.843Z,2.75
2022-10-10T11:49:45.250Z,2.60
2022-10-10T11:50:53.422Z,2.45
2022-10-10T11:52:35.400Z,2.40
2022-10-10T11:53:43.378Z,3.00
2022-10-10T11:54:51.717Z,2.40
2022-10-10T11:55:58.918Z,2.60
2022-10-10T11:57:05.991Z,3.40
2022-10-10T11:58:28.710Z,2.60
2022-10-10T11:59:35.172Z,2.37
2022-10-10T12:00:41.780Z,2.60
2022-10-10T12:01:49.934Z,3.00
2022-10-10T12:02:56.560Z,2.20
2022-10-10T12:04:00.663Z,2.63
2022-10-10T12:05:06.403Z,2.70
2022-10-10T12:06:15.480Z,2.70
2022-10-10T12:07:23.273Z,2.17
2022-10-10T12:08:31.256Z,2.40
2022-10-10T12:09:39.088Z,2.10
2022-10-10T12:10:46.422Z,2.60
2022-10-10T12:11:55.211Z,2.20
2022-10-10T12:13:04.759Z,2.73
2022-10-10T12:14:10.854Z,2.90
2022-10-10T12:15:27.601Z,2.53
2022-10-10T12:16:32.051Z,2.70
2022-10-10T12:17:43.734Z,2.63
2022-10-10T12:18:51.510Z,2.70
2022-10-10T12:19:55.915Z,2.40
2022-10-10T12:21:08.268Z,2.70
2022-10-10T12:22:23.980Z,2.80
2022-10-10T12:23:30.260Z,2.70
2022-10-10T12:24:38.640Z,2.80
2022-10-10T12:25:46.325Z,2.90
2022-10-10T12:27:11.859Z,2.50
2022-10-10T12:28:28.345Z,2.70
2022-10-10T12:29:46.817Z,2.60
2022-10-10T12:31:31.515Z,2.30
2022-10-10T12:32:42.410Z,2.37
2022-10-10T12:34:15.413Z,2.47
2022-10-10T12:35:38.691Z,2.63
2022-10-10T12:37:18.517Z,2.40
2022-10-10T12:38:24.301Z,2.57
2022-10-10T12:39:36.090Z,3.00
2022-10-10T12:41:11.783Z,2.60
2022-10-10T12:42:36.473Z,4.83
2022-10-10T12:43:46.069Z,2.93
2022-10-10T12:44:51.853Z,2.80
2022-10-10T12:46:08.509Z,2.40
2022-10-10T12:47:59.658Z,2.63
2022-10-10T12:49:01.410Z,2.30
2022-10-10T12:50:08.211Z,2.70
2022-10-10T12:51:20.892Z,2.60
2022-10-10T12:52:27.931Z,2.50
2022-10-10T12:53:33.825Z,2.80
2022-10-10T12:54:41.676Z,2.57
2022-10-10T12:55:47.302Z,3.00
2022-10-10T12:56:53.476Z,2.70
2022-10-10T12:57:59.920Z,2.40
2022-10-10T12:59:03.510Z,2.67
2022-10-10T13:00:17.874Z,3.10
2022-10-10T13:01:25.763Z,2.77
2022-10-10T13:02:30.204Z,2.67
2022-10-10T13:03:35.443Z,2.63
2022-10-10T13:04:44.190Z,2.83
2022-10-10T13:05:48.238Z,2.93
2022-10-10T13:06:56.277Z,3.27
2022-10-10T13:08:01.237Z,2.50
2022-10-10T13:09:06.918Z,2.80
2022-10-10T13:10:22.508Z,2.53
2022-10-10T13:11:25.685Z,3.17
2022-10-10T13:12:32.592Z,3.00
2022-10-10T13:13:35.912Z,2.70
2022-10-10T13:14:42.053Z,2.63
2022-10-10T13:15:55.061Z,2.53
2022-10-10T13:16:59.443Z,2.83
2022-10-10T13:18:03.651Z,2.50
2022-10-10T13:19:06.935Z,2.63
2022-10-10T13:20:28.902Z,2.90
2022-10-10T13:21:35.173Z,2.77
2022-10-10T13:22:38.521Z,2.63
2022-10-10T13:25:11.788Z,2.90
2022-10-10T13:26:28.023Z,2.73
2022-10-10T13:27:33.911Z,2.87
2022-10-10T13:28:37.495Z,3.43
2022-10-10T13:29:42.421Z,2.90
2022-10-10T13:30:47.340Z,3.10
2022-10-10T13:31:52.600Z,3.10
2022-10-10T13:32:57.520Z,2.80
2022-10-10T13:34:03.813Z,2.73
2022-10-10T13:35:15.281Z,2.47
2022-10-10T13:36:21.558Z,2.97
2022-10-10T13:37:26.076Z,2.90
2022-10-10T13:38:29.106Z,2.70
2022-10-10T13:39:35.781Z,2.40
2022-10-10T13:40:40.230Z,2.33
2022-10-10T13:41:45.739Z,2.93
2022-10-10T13:42:50.151Z,2.90
2022-10-10T13:43:53.741Z,2.70
2022-10-10T13:45:00.417Z,3.57
2022-10-10T13:46:05.632Z,2.60
2022-10-10T13:48:01.562Z,3.40
2022-10-10T13:49:15.553Z,3.07
2022-10-10T13:50:22.349Z,2.90
2022-10-10T13:51:44.117Z,2.73
2022-10-10T13:52:47.193Z,2.70
2022-10-10T13:53:53.272Z,2.37
2022-10-10T13:55:16.242Z,3.00
2022-10-10T13:56:26.253Z,2.80
2022-10-10T13:57:29.189Z,3.43
2022-10-10T13:58:39.441Z,3.03
2022-10-10T13:59:43.924Z,2.93
2022-10-10T14:00:55.428Z,2.87
2022-10-10T14:02:02.162Z,2.87
2022-10-10T14:03:13.902Z,3.53
2022-10-10T14:04:21.920Z,3.40
2022-10-10T14:05:28.854Z,2.80
2022-10-10T14:06:33.212Z,3.03
2022-10-10T14:07:36.413Z,2.70
2022-10-10T14:08:41.610Z,3.10
2022-10-10T14:09:52.624Z,2.70
2022-10-10T14:10:58.564Z,2.60
2022-10-10T14:12:04.583Z,3.57
2022-10-10T14:13:18.949Z,3.20
2022-10-10T14:14:25.195Z,2.90
2022-10-10T14:15:35.289Z,3.00
2022-10-10T14:16:39.242Z,2.50
2022-10-10T14:17:42.194Z,3.00
2022-10-10T14:18:46.386Z,3.05
2022-10-10T14:19:51.960Z,2.93
2022-10-10T14:20:56.469Z,2.90
2022-10-10T14:22:00.772Z,2.50
2022-10-10T14:23:05.071Z,2.78
2022-10-10T14:24:10.079Z,2.88
2022-10-10T14:25:13.188Z,3.20
2022-10-10T14:26:19.517Z,3.67
2022-10-10T14:27:25.061Z,2.80
2022-10-10T14:28:31.095Z,2.83
2022-10-10T14:29:34.262Z,3.30
2022-10-10T14:30:38.267Z,2.42
2022-10-10T14:31:41.597Z,2.60
2022-10-10T14:32:45.673Z,3.30
2022-10-10T14:33:49.655Z,2.80
2022-10-10T14:34:55.171Z,3.00
2022-10-10T14:35:59.764Z,2.80
2022-10-10T14:37:04.028Z,3.20
2022-10-10T14:38:07.197Z,2.95
2022-10-10T14:39:12.887Z,3.35
2022-10-10T14:40:19.816Z,2.53
2022-10-10T14:41:24.079Z,3.72
2022-10-10T14:42:27.253Z,3.47
2022-10-10T14:43:31.512Z,2.85